sensor_id;sensor_type;location;lat;lon;timestamp;pressure;altitude;pressure_sealevel;temperature;humidity
829;BME280;396;52.558;13.188;2023-02-04T00:01:53;101736.91;;;3.50;100.00
829;BME280;396;52.558;13.188;2023-02-04T00:04:19;101753.78;;;3.51;100.00
829;BME280;396;52.558;13.188;2023-02-04T00:06:46;101770.69;;;3.51;100.00
829;BME280;396;52.558;13.188;2023-02-04T00:09:12;101767.38;;;3.49;100.00
829;BME280;396;52.558;13.188;2023-02-04T00:11:42;101779.63;;;3.45;100.00
829;BME280;396;52.558;13.188;2023-02-04T00:14:09;101784.31;;;3.50;100.00
829;BME280;396;52.558;13.188;2023-02-04T00:16:36;101796.94;;;3.43;100.00
829;BME280;396;52.558;13.188;2023-02-04T00:19:03;101797.19;;;3.41;100.00
829;BME280;396;52.558;13.188;2023-02-04T00:21:29;101798.44;;;3.39;100.00
829;BME280;396;52.558;13.188;2023-02-04T00:23:56;101815.25;;;3.46;100.00
829;BME280;396;52.558;13.188;2023-02-04T00:26:22;101824.81;;;3.35;100.00
829;BME280;396;52.558;13.188;2023-02-04T00:28:50;101828.59;;;3.27;100.00
829;BME280;396;52.558;13.188;2023-02-04T00:31:17;101837.84;;;3.32;100.00
829;BME280;396;52.558;13.188;2023-02-04T00:33:43;101846.91;;;3.31;100.00
829;BME280;396;52.558;13.188;2023-02-04T00:36:10;101846.19;;;3.23;100.00
829;BME280;396;52.558;13.188;2023-02-04T00:38:36;101852.56;;;3.22;100.00
829;BME280;396;52.558;13.188;2023-02-04T00:41:03;101871.75;;;3.19;100.00
829;BME280;396;52.558;13.188;2023-02-04T00:43:31;101873.97;;;3.22;100.00
829;BME280;396;52.558;13.188;2023-02-04T00:45:59;101885.50;;;3.23;100.00
829;BME280;396;52.558;13.188;2023-02-04T00:48:25;101906.06;;;3.29;100.00
829;BME280;396;52.558;13.188;2023-02-04T00:50:52;101920.09;;;3.24;100.00
829;BME280;396;52.558;13.188;2023-02-04T00:53:19;101935.06;;;3.32;100.00
829;BME280;396;52.558;13.188;2023-02-04T00:55:46;101935.34;;;3.24;100.00
829;BME280;396;52.558;13.188;2023-02-04T00:58:12;101943.25;;;3.12;100.00
829;BME280;396;52.558;13.188;2023-02-04T01:00:39;101960.78;;;3.08;100.00
829;BME280;396;52.558;13.188;2023-02-04T01:03:07;101958.97;;;3.02;100.00
829;BME280;396;52.558;13.188;2023-02-04T01:05:33;101975.03;;;3.02;100.00
829;BME280;396;52.558;13.188;2023-02-04T01:08:00;101988.84;;;2.99;100.00
829;BME280;396;52.558;13.188;2023-02-04T01:10:27;101994.19;;;2.99;100.00
829;BME280;396;52.558;13.188;2023-02-04T01:12:53;102003.03;;;2.99;100.00
829;BME280;396;52.558;13.188;2023-02-04T01:15:20;102010.31;;;2.92;100.00
829;BME280;396;52.558;13.188;2023-02-04T01:17:47;102019.75;;;2.95;100.00
829;BME280;396;52.558;13.188;2023-02-04T01:20:16;102021.38;;;2.96;100.00
829;BME280;396;52.558;13.188;2023-02-04T01:22:42;102031.50;;;2.94;100.00
829;BME280;396;52.558;13.188;2023-02-04T01:25:09;102044.53;;;2.84;100.00
829;BME280;396;52.558;13.188;2023-02-04T01:27:36;102059.94;;;2.82;100.00
829;BME280;396;52.558;13.188;2023-02-04T01:30:04;102056.47;;;2.74;99.88
829;BME280;396;52.558;13.188;2023-02-04T01:32:31;102056.28;;;2.76;100.00
829;BME280;396;52.558;13.188;2023-02-04T01:34:57;102053.84;;;2.68;100.00
829;BME280;396;52.558;13.188;2023-02-04T01:37:25;102063.09;;;2.65;100.00
829;BME280;396;52.558;13.188;2023-02-04T01:39:52;102066.00;;;2.64;100.00
829;BME280;396;52.558;13.188;2023-02-04T01:42:18;102100.75;;;2.70;100.00
829;BME280;396;52.558;13.188;2023-02-04T01:44:45;102104.03;;;2.72;100.00
829;BME280;396;52.558;13.188;2023-02-04T01:47:12;102099.50;;;2.73;100.00
829;BME280;396;52.558;13.188;2023-02-04T01:49:39;102109.84;;;2.63;99.78
829;BME280;396;52.558;13.188;2023-02-04T01:52:06;102129.59;;;2.55;100.00
829;BME280;396;52.558;13.188;2023-02-04T01:54:34;102131.25;;;2.49;100.00
829;BME280;396;52.558;13.188;2023-02-04T01:57:01;102143.19;;;2.53;100.00
829;BME280;396;52.558;13.188;2023-02-04T01:59:29;102148.94;;;2.57;100.00
829;BME280;396;52.558;13.188;2023-02-04T02:01:55;102157.16;;;2.62;99.96
829;BME280;396;52.558;13.188;2023-02-04T02:04:26;102157.16;;;2.56;99.64
829;BME280;396;52.558;13.188;2023-02-04T02:06:56;102168.69;;;2.56;100.00
829;BME280;396;52.558;13.188;2023-02-04T02:09:23;102183.28;;;2.47;99.78
829;BME280;396;52.558;13.188;2023-02-04T02:11:52;102183.50;;;2.52;99.83
829;BME280;396;52.558;13.188;2023-02-04T02:14:19;102190.69;;;2.51;100.00
829;BME280;396;52.558;13.188;2023-02-04T02:16:45;102192.56;;;2.51;100.00
829;BME280;396;52.558;13.188;2023-02-04T02:19:15;102196.47;;;2.48;100.00
829;BME280;396;52.558;13.188;2023-02-04T02:21:50;102194.19;;;2.39;100.00
829;BME280;396;52.558;13.188;2023-02-04T02:24:26;102203.88;;;2.46;100.00
829;BME280;396;52.558;13.188;2023-02-04T02:26:54;102208.81;;;2.43;100.00
829;BME280;396;52.558;13.188;2023-02-04T02:29:22;102205.50;;;2.47;100.00
829;BME280;396;52.558;13.188;2023-02-04T02:31:49;102224.66;;;2.44;99.88
829;BME280;396;52.558;13.188;2023-02-04T02:34:16;102226.31;;;2.45;100.00
829;BME280;396;52.558;13.188;2023-02-04T02:36:42;102224.25;;;2.41;100.00
829;BME280;396;52.558;13.188;2023-02-04T02:39:09;102247.06;;;2.30;100.00
829;BME280;396;52.558;13.188;2023-02-04T02:41:37;102250.34;;;2.25;100.00
829;BME280;396;52.558;13.188;2023-02-04T02:44:04;102252.63;;;2.22;100.00
829;BME280;396;52.558;13.188;2023-02-04T02:46:31;102255.50;;;2.14;100.00
829;BME280;396;52.558;13.188;2023-02-04T02:48:58;102264.72;;;2.11;100.00
829;BME280;396;52.558;13.188;2023-02-04T02:51:25;102264.94;;;2.10;100.00
829;BME280;396;52.558;13.188;2023-02-04T02:53:52;102268.84;;;2.20;100.00
829;BME280;396;52.558;13.188;2023-02-04T02:56:18;102266.78;;;2.16;100.00
829;BME280;396;52.558;13.188;2023-02-04T02:58:47;102272.94;;;2.16;100.00
829;BME280;396;52.558;13.188;2023-02-04T03:01:14;102284.25;;;2.12;100.00
829;BME280;396;52.558;13.188;2023-02-04T03:03:43;102291.06;;;2.14;100.00
829;BME280;396;52.558;13.188;2023-02-04T03:06:13;102292.44;;;2.03;100.00
829;BME280;396;52.558;13.188;2023-02-04T03:08:41;102302.97;;;2.12;100.00
829;BME280;396;52.558;13.188;2023-02-04T03:11:09;102304.63;;;2.19;100.00
829;BME280;396;52.558;13.188;2023-02-04T03:13:36;102313.25;;;2.15;100.00
829;BME280;396;52.558;13.188;2023-02-04T03:16:05;102317.97;;;2.06;100.00
829;BME280;396;52.558;13.188;2023-02-04T03:18:33;102334.38;;;2.03;100.00
829;BME280;396;52.558;13.188;2023-02-04T03:21:02;102338.53;;;2.06;100.00
829;BME280;396;52.558;13.188;2023-02-04T03:23:31;102356.41;;;2.05;100.00
829;BME280;396;52.558;13.188;2023-02-04T03:25:58;102359.69;;;2.00;100.00
829;BME280;396;52.558;13.188;2023-02-04T03:28:25;102368.31;;;2.02;100.00
829;BME280;396;52.558;13.188;2023-02-04T03:30:52;102382.44;;;1.90;100.00
829;BME280;396;52.558;13.188;2023-02-04T03:33:22;102375.88;;;1.92;100.00
829;BME280;396;52.558;13.188;2023-02-04T03:35:49;102404.25;;;1.93;100.00
829;BME280;396;52.558;13.188;2023-02-04T03:38:16;102410.81;;;1.91;100.00
829;BME280;396;52.558;13.188;2023-02-04T03:40:42;102419.22;;;1.88;100.00
829;BME280;396;52.558;13.188;2023-02-04T03:43:09;102421.66;;;1.83;100.00
829;BME280;396;52.558;13.188;2023-02-04T03:45:35;102425.16;;;1.83;100.00
829;BME280;396;52.558;13.188;2023-02-04T03:48:02;102432.06;;;1.71;100.00
829;BME280;396;52.558;13.188;2023-02-04T03:50:30;102437.38;;;1.64;100.00
829;BME280;396;52.558;13.188;2023-02-04T03:52:57;102456.59;;;1.53;100.00
829;BME280;396;52.558;13.188;2023-02-04T03:55:24;102455.13;;;1.50;100.00
829;BME280;396;52.558;13.188;2023-02-04T03:57:51;102452.28;;;1.52;100.00
829;BME280;396;52.558;13.188;2023-02-04T04:00:18;102457.56;;;1.45;100.00
829;BME280;396;52.558;13.188;2023-02-04T04:02:45;102464.81;;;1.51;100.00
829;BME280;396;52.558;13.188;2023-02-04T04:05:11;102465.63;;;1.52;100.00
829;BME280;396;52.558;13.188;2023-02-04T04:07:39;102483.69;;;1.50;100.00
829;BME280;396;52.558;13.188;2023-02-04T04:10:06;102479.38;;;1.49;100.00
829;BME280;396;52.558;13.188;2023-02-04T04:12:33;102483.84;;;1.42;100.00
829;BME280;396;52.558;13.188;2023-02-04T04:14:59;102493.00;;;1.33;100.00
829;BME280;396;52.558;13.188;2023-02-04T04:17:26;102499.59;;;1.37;100.00
829;BME280;396;52.558;13.188;2023-02-04T04:19:53;102507.59;;;1.37;100.00
829;BME280;396;52.558;13.188;2023-02-04T04:22:19;102504.94;;;1.37;100.00
829;BME280;396;52.558;13.188;2023-02-04T04:24:47;102520.91;;;1.51;100.00
829;BME280;396;52.558;13.188;2023-02-04T04:27:14;102524.19;;;1.32;100.00
829;BME280;396;52.558;13.188;2023-02-04T04:29:40;102534.56;;;1.42;100.00
829;BME280;396;52.558;13.188;2023-02-04T04:32:07;102536.84;;;1.45;100.00
829;BME280;396;52.558;13.188;2023-02-04T04:34:34;102550.41;;;1.43;100.00
829;BME280;396;52.558;13.188;2023-02-04T04:37:01;102549.03;;;1.54;100.00
829;BME280;396;52.558;13.188;2023-02-04T04:39:27;102559.59;;;1.62;100.00
829;BME280;396;52.558;13.188;2023-02-04T04:41:55;102563.91;;;1.63;100.00
829;BME280;396;52.558;13.188;2023-02-04T04:44:22;102578.63;;;1.52;100.00
829;BME280;396;52.558;13.188;2023-02-04T04:46:48;102580.91;;;1.56;100.00
829;BME280;396;52.558;13.188;2023-02-04T04:49:15;102584.00;;;1.59;100.00
829;BME280;396;52.558;13.188;2023-02-04T04:51:42;102596.53;;;1.59;100.00
829;BME280;396;52.558;13.188;2023-02-04T04:54:08;102601.19;;;1.50;100.00
829;BME280;396;52.558;13.188;2023-02-04T04:56:35;102606.50;;;1.50;100.00
829;BME280;396;52.558;13.188;2023-02-04T04:59:03;102617.59;;;1.47;100.00
829;BME280;396;52.558;13.188;2023-02-04T05:01:29;102615.41;;;1.36;100.00
829;BME280;396;52.558;13.188;2023-02-04T05:03:56;102627.38;;;1.40;100.00
829;BME280;396;52.558;13.188;2023-02-04T05:06:23;102632.09;;;1.38;100.00
829;BME280;396;52.558;13.188;2023-02-04T05:08:50;102632.34;;;1.43;100.00
829;BME280;396;52.558;13.188;2023-02-04T05:11:17;102640.91;;;1.38;100.00
829;BME280;396;52.558;13.188;2023-02-04T05:13:44;102653.56;;;1.30;100.00
829;BME280;396;52.558;13.188;2023-02-04T05:16:12;102646.72;;;1.27;100.00
829;BME280;396;52.558;13.188;2023-02-04T05:18:39;102645.28;;;1.24;100.00
829;BME280;396;52.558;13.188;2023-02-04T05:21:06;102655.19;;;1.31;100.00
829;BME280;396;52.558;13.188;2023-02-04T05:23:33;102663.22;;;1.31;100.00
829;BME280;396;52.558;13.188;2023-02-04T05:26:00;102663.22;;;1.31;100.00
829;BME280;396;52.558;13.188;2023-02-04T05:28:26;102668.03;;;1.20;100.00
829;BME280;396;52.558;13.188;2023-02-04T05:30:53;102677.59;;;1.15;100.00
829;BME280;396;52.558;13.188;2023-02-04T05:33:21;102687.06;;;1.17;100.00
829;BME280;396;52.558;13.188;2023-02-04T05:35:48;102681.16;;;1.22;100.00
829;BME280;396;52.558;13.188;2023-02-04T05:38:14;102692.88;;;1.21;100.00
829;BME280;396;52.558;13.188;2023-02-04T05:40:41;102702.06;;;1.18;100.00
829;BME280;396;52.558;13.188;2023-02-04T05:43:07;102702.47;;;1.15;100.00
829;BME280;396;52.558;13.188;2023-02-04T05:45:35;102715.25;;;1.20;100.00
829;BME280;396;52.558;13.188;2023-02-04T05:48:01;102722.13;;;1.14;100.00
829;BME280;396;52.558;13.188;2023-02-04T05:50:29;102730.53;;;1.11;100.00
829;BME280;396;52.558;13.188;2023-02-04T05:52:56;102727.19;;;1.09;100.00
829;BME280;396;52.558;13.188;2023-02-04T05:55:22;102734.47;;;1.15;100.00
829;BME280;396;52.558;13.188;2023-02-04T05:57:49;102743.31;;;1.16;100.00
829;BME280;396;52.558;13.188;2023-02-04T06:00:16;102748.66;;;1.16;100.00
829;BME280;396;52.558;13.188;2023-02-04T06:02:42;102750.84;;;1.12;100.00
829;BME280;396;52.558;13.188;2023-02-04T06:05:09;102759.13;;;1.17;100.00
829;BME280;396;52.558;13.188;2023-02-04T06:07:37;102765.09;;;1.19;100.00
829;BME280;396;52.558;13.188;2023-02-04T06:10:04;102777.53;;;1.12;100.00
829;BME280;396;52.558;13.188;2023-02-04T06:12:31;102778.91;;;1.08;100.00
829;BME280;396;52.558;13.188;2023-02-04T06:14:57;102780.94;;;1.06;100.00
829;BME280;396;52.558;13.188;2023-02-04T06:17:24;102785.56;;;0.97;100.00
829;BME280;396;52.558;13.188;2023-02-04T06:19:50;102797.13;;;0.90;100.00
829;BME280;396;52.558;13.188;2023-02-04T06:22:17;102792.97;;;0.87;100.00
829;BME280;396;52.558;13.188;2023-02-04T06:24:45;102800.41;;;0.92;100.00
829;BME280;396;52.558;13.188;2023-02-04T06:27:12;102793.56;;;0.97;100.00
829;BME280;396;52.558;13.188;2023-02-04T06:29:38;102806.41;;;0.94;100.00
829;BME280;396;52.558;13.188;2023-02-04T06:32:05;102807.88;;;0.96;100.00
829;BME280;396;52.558;13.188;2023-02-04T06:34:31;102809.16;;;0.86;100.00
829;BME280;396;52.558;13.188;2023-02-04T06:36:58;102824.44;;;0.92;100.00
829;BME280;396;52.558;13.188;2023-02-04T06:39:24;102812.19;;;0.83;100.00
829;BME280;396;52.558;13.188;2023-02-04T06:41:52;102811.63;;;0.72;100.00
829;BME280;396;52.558;13.188;2023-02-04T06:44:19;102819.56;;;0.81;100.00
829;BME280;396;52.558;13.188;2023-02-04T06:46:45;102815.88;;;0.82;100.00
829;BME280;396;52.558;13.188;2023-02-04T06:49:12;102812.53;;;0.80;100.00
829;BME280;396;52.558;13.188;2023-02-04T06:51:38;102815.03;;;0.81;100.00
829;BME280;396;52.558;13.188;2023-02-04T06:54:05;102804.19;;;0.83;100.00
829;BME280;396;52.558;13.188;2023-02-04T06:56:32;102809.31;;;0.69;100.00
829;BME280;396;52.558;13.188;2023-02-04T06:59:00;102816.66;;;0.67;100.00
829;BME280;396;52.558;13.188;2023-02-04T07:01:26;102820.16;;;0.68;100.00
829;BME280;396;52.558;13.188;2023-02-04T07:03:54;102825.78;;;0.73;100.00
829;BME280;396;52.558;13.188;2023-02-04T07:06:20;102826.34;;;0.83;100.00
829;BME280;396;52.558;13.188;2023-02-04T07:08:47;102839.81;;;0.90;100.00
829;BME280;396;52.558;13.188;2023-02-04T07:11:14;102845.97;;;0.90;100.00
829;BME280;396;52.558;13.188;2023-02-04T07:13:41;102842.59;;;0.73;100.00
829;BME280;396;52.558;13.188;2023-02-04T07:16:09;102842.25;;;0.77;100.00
829;BME280;396;52.558;13.188;2023-02-04T07:18:36;102851.44;;;0.74;100.00
829;BME280;396;52.558;13.188;2023-02-04T07:21:02;102855.69;;;0.83;100.00
829;BME280;396;52.558;13.188;2023-02-04T07:23:29;102860.88;;;0.85;100.00
829;BME280;396;52.558;13.188;2023-02-04T07:25:55;102876.78;;;0.93;100.00
829;BME280;396;52.558;13.188;2023-02-04T07:28:23;102870.72;;;0.99;100.00
829;BME280;396;52.558;13.188;2023-02-04T07:30:50;102878.00;;;1.05;100.00
829;BME280;396;52.558;13.188;2023-02-04T07:33:18;102878.66;;;1.07;100.00
829;BME280;396;52.558;13.188;2023-02-04T07:35:44;102884.38;;;1.04;100.00
829;BME280;396;52.558;13.188;2023-02-04T07:38:11;102886.56;;;1.00;100.00
829;BME280;396;52.558;13.188;2023-02-04T07:40:38;102891.53;;;1.04;100.00
829;BME280;396;52.558;13.188;2023-02-04T07:43:04;102897.06;;;1.02;100.00
829;BME280;396;52.558;13.188;2023-02-04T07:45:31;102900.44;;;0.96;100.00
829;BME280;396;52.558;13.188;2023-02-04T07:47:57;102902.56;;;1.00;100.00
829;BME280;396;52.558;13.188;2023-02-04T07:50:25;102908.19;;;1.06;100.00
829;BME280;396;52.558;13.188;2023-02-04T07:52:52;102915.66;;;1.10;100.00
829;BME280;396;52.558;13.188;2023-02-04T07:55:18;102915.75;;;1.02;100.00
829;BME280;396;52.558;13.188;2023-02-04T07:57:45;102924.13;;;1.14;100.00
829;BME280;396;52.558;13.188;2023-02-04T08:00:13;102928.44;;;1.15;100.00
829;BME280;396;52.558;13.188;2023-02-04T08:02:40;102934.88;;;1.29;100.00
829;BME280;396;52.558;13.188;2023-02-04T08:05:07;102936.03;;;1.26;100.00
829;BME280;396;52.558;13.188;2023-02-04T08:07:35;102944.34;;;1.31;100.00
829;BME280;396;52.558;13.188;2023-02-04T08:10:02;102955.50;;;1.35;100.00
829;BME280;396;52.558;13.188;2023-02-04T08:12:29;102956.44;;;1.42;100.00
829;BME280;396;52.558;13.188;2023-02-04T08:14:55;102969.25;;;1.46;100.00
829;BME280;396;52.558;13.188;2023-02-04T08:17:22;102965.72;;;1.46;100.00
829;BME280;396;52.558;13.188;2023-02-04T08:19:49;102968.97;;;1.56;100.00
829;BME280;396;52.558;13.188;2023-02-04T08:22:15;102972.28;;;1.58;100.00
829;BME280;396;52.558;13.188;2023-02-04T08:24:44;102977.06;;;1.63;100.00
829;BME280;396;52.558;13.188;2023-02-04T08:27:10;102975.16;;;1.71;100.00
829;BME280;396;52.558;13.188;2023-02-04T08:29:37;102984.47;;;1.75;100.00
829;BME280;396;52.558;13.188;2023-02-04T08:32:03;102990.34;;;1.86;100.00
829;BME280;396;52.558;13.188;2023-02-04T08:34:30;103003.09;;;1.84;100.00
829;BME280;396;52.558;13.188;2023-02-04T08:36:57;102997.75;;;1.84;100.00
829;BME280;396;52.558;13.188;2023-02-04T08:39:24;103001.53;;;1.89;100.00
829;BME280;396;52.558;13.188;2023-02-04T08:41:52;103000.06;;;1.87;100.00
829;BME280;396;52.558;13.188;2023-02-04T08:44:18;103005.84;;;1.90;100.00
829;BME280;396;52.558;13.188;2023-02-04T08:46:45;103001.63;;;1.96;100.00
829;BME280;396;52.558;13.188;2023-02-04T08:49:11;102999.69;;;2.05;100.00
829;BME280;396;52.558;13.188;2023-02-04T08:51:38;102999.31;;;2.08;100.00
829;BME280;396;52.558;13.188;2023-02-04T08:54:05;103004.97;;;2.13;100.00
829;BME280;396;52.558;13.188;2023-02-04T08:56:31;103005.59;;;2.00;100.00
829;BME280;396;52.558;13.188;2023-02-04T08:59:00;103010.47;;;2.11;100.00
829;BME280;396;52.558;13.188;2023-02-04T09:01:27;103012.03;;;2.20;100.00
829;BME280;396;52.558;13.188;2023-02-04T09:03:54;103015.72;;;2.19;100.00
829;BME280;396;52.558;13.188;2023-02-04T09:06:20;103017.38;;;2.35;100.00
829;BME280;396;52.558;13.188;2023-02-04T09:08:47;103018.22;;;2.36;100.00
829;BME280;396;52.558;13.188;2023-02-04T09:11:13;103022.28;;;2.32;100.00
829;BME280;396;52.558;13.188;2023-02-04T09:13:40;103031.38;;;2.37;100.00
829;BME280;396;52.558;13.188;2023-02-04T09:16:08;103035.97;;;2.43;100.00
829;BME280;396;52.558;13.188;2023-02-04T09:18:35;103046.41;;;2.53;100.00
829;BME280;396;52.558;13.188;2023-02-04T09:21:01;103038.41;;;2.53;100.00
829;BME280;396;52.558;13.188;2023-02-04T09:23:28;103040.84;;;2.69;100.00
829;BME280;396;52.558;13.188;2023-02-04T09:25:55;103049.13;;;2.74;100.00
829;BME280;396;52.558;13.188;2023-02-04T09:28:21;103051.34;;;2.86;99.86
829;BME280;396;52.558;13.188;2023-02-04T09:30:48;103055.19;;;2.98;100.00
829;BME280;396;52.558;13.188;2023-02-04T09:33:16;103057.75;;;3.06;97.49
829;BME280;396;52.558;13.188;2023-02-04T09:35:43;103065.38;;;3.09;97.08
829;BME280;396;52.558;13.188;2023-02-04T09:38:09;103064.75;;;3.07;96.38
829;BME280;396;52.558;13.188;2023-02-04T09:40:40;103072.69;;;3.15;96.84
829;BME280;396;52.558;13.188;2023-02-04T09:43:11;103071.06;;;3.21;95.54
829;BME280;396;52.558;13.188;2023-02-04T09:45:39;103079.00;;;3.29;95.67
829;BME280;396;52.558;13.188;2023-02-04T09:48:06;103079.03;;;3.36;95.27
829;BME280;396;52.558;13.188;2023-02-04T09:50:34;103085.56;;;3.48;95.41
829;BME280;396;52.558;13.188;2023-02-04T09:53:03;103082.31;;;3.52;92.17
829;BME280;396;52.558;13.188;2023-02-04T09:55:32;103078.31;;;3.42;91.05
829;BME280;396;52.558;13.188;2023-02-04T09:57:59;103081.22;;;3.47;91.61
829;BME280;396;52.558;13.188;2023-02-04T10:00:27;103083.25;;;3.45;92.19
829;BME280;396;52.558;13.188;2023-02-04T10:02:55;103077.66;;;3.61;92.44
829;BME280;396;52.558;13.188;2023-02-04T10:05:28;103076.56;;;3.77;93.32
829;BME280;396;52.558;13.188;2023-02-04T10:07:56;103082.19;;;3.89;93.84
829;BME280;396;52.558;13.188;2023-02-04T10:10:24;103086.66;;;4.03;92.60
829;BME280;396;52.558;13.188;2023-02-04T10:12:54;103086.94;;;3.87;86.69
829;BME280;396;52.558;13.188;2023-02-04T10:15:21;103088.69;;;3.73;89.16
829;BME280;396;52.558;13.188;2023-02-04T10:17:50;103092.91;;;3.89;89.03
829;BME280;396;52.558;13.188;2023-02-04T10:20:19;103100.59;;;3.92;87.27
829;BME280;396;52.558;13.188;2023-02-04T10:22:46;103092.31;;;3.87;86.28
829;BME280;396;52.558;13.188;2023-02-04T10:25:16;103094.78;;;3.88;86.32
829;BME280;396;52.558;13.188;2023-02-04T10:27:47;103103.03;;;3.87;85.39
829;BME280;396;52.558;13.188;2023-02-04T10:30:18;103109.34;;;4.07;87.57
829;BME280;396;52.558;13.188;2023-02-04T10:32:46;103108.03;;;3.96;84.63
829;BME280;396;52.558;13.188;2023-02-04T10:35:13;103114.91;;;4.05;82.69
829;BME280;396;52.558;13.188;2023-02-04T10:37:40;103110.25;;;4.14;82.73
829;BME280;396;52.558;13.188;2023-02-04T10:40:26;103119.44;;;4.33;82.48
829;BME280;396;52.558;13.188;2023-02-04T10:42:52;103110.78;;;4.31;81.74
829;BME280;396;52.558;13.188;2023-02-04T10:45:24;103118.16;;;4.22;79.73
829;BME280;396;52.558;13.188;2023-02-04T10:47:51;103119.22;;;4.28;81.39
829;BME280;396;52.558;13.188;2023-02-04T10:50:20;103106.44;;;4.30;82.00
829;BME280;396;52.558;13.188;2023-02-04T10:52:49;103117.63;;;4.40;80.79
829;BME280;396;52.558;13.188;2023-02-04T10:55:18;103121.88;;;4.56;79.99
829;BME280;396;52.558;13.188;2023-02-04T10:57:48;103122.34;;;4.66;77.55
829;BME280;396;52.558;13.188;2023-02-04T11:00:17;103119.66;;;4.73;77.17
829;BME280;396;52.558;13.188;2023-02-04T11:02:48;103121.19;;;4.89;78.24
829;BME280;396;52.558;13.188;2023-02-04T11:05:19;103127.94;;;4.71;74.74
829;BME280;396;52.558;13.188;2023-02-04T11:07:46;103127.81;;;4.51;75.25
829;BME280;396;52.558;13.188;2023-02-04T11:10:16;103133.34;;;4.43;74.46
829;BME280;396;52.558;13.188;2023-02-04T11:12:44;103137.63;;;4.38;77.43
829;BME280;396;52.558;13.188;2023-02-04T11:15:39;103135.72;;;4.60;76.76
829;BME280;396;52.558;13.188;2023-02-04T11:18:07;103130.78;;;4.63;75.54
829;BME280;396;52.558;13.188;2023-02-04T11:20:35;103134.34;;;4.70;74.39
829;BME280;396;52.558;13.188;2023-02-04T11:23:29;103131.22;;;4.67;74.66
829;BME280;396;52.558;13.188;2023-02-04T11:26:01;103137.09;;;4.84;76.06
829;BME280;396;52.558;13.188;2023-02-04T11:28:28;103136.16;;;5.11;77.42
829;BME280;396;52.558;13.188;2023-02-04T11:30:59;103130.91;;;5.51;75.50
829;BME280;396;52.558;13.188;2023-02-04T11:33:37;103136.09;;;5.79;75.41
829;BME280;396;52.558;13.188;2023-02-04T11:36:07;103145.81;;;5.60;71.03
829;BME280;396;52.558;13.188;2023-02-04T11:38:35;103150.97;;;5.55;69.65
829;BME280;396;52.558;13.188;2023-02-04T11:41:03;103145.59;;;5.55;69.56
829;BME280;396;52.558;13.188;2023-02-04T11:43:32;103153.25;;;4.97;71.09
829;BME280;396;52.558;13.188;2023-02-04T11:46:03;103147.13;;;4.68;74.05
829;BME280;396;52.558;13.188;2023-02-04T11:48:30;103160.59;;;4.81;75.45
829;BME280;396;52.558;13.188;2023-02-04T11:50:59;103159.63;;;4.89;74.48
829;BME280;396;52.558;13.188;2023-02-04T11:53:29;103161.53;;;5.02;75.76
829;BME280;396;52.558;13.188;2023-02-04T11:55:56;103172.16;;;6.04;73.43
829;BME280;396;52.558;13.188;2023-02-04T11:58:24;103171.59;;;7.00;67.92
829;BME280;396;52.558;13.188;2023-02-04T12:00:51;103178.03;;;7.38;64.26
829;BME280;396;52.558;13.188;2023-02-04T12:03:22;103181.22;;;6.56;64.31
829;BME280;396;52.558;13.188;2023-02-04T12:05:50;103173.56;;;5.87;65.27
829;BME280;396;52.558;13.188;2023-02-04T12:08:30;103169.78;;;5.55;68.89
829;BME280;396;52.558;13.188;2023-02-04T12:11:03;103169.09;;;5.40;69.62
829;BME280;396;52.558;13.188;2023-02-04T12:13:32;103167.34;;;5.73;73.13
829;BME280;396;52.558;13.188;2023-02-04T12:16:00;103165.94;;;6.11;66.81
829;BME280;396;52.558;13.188;2023-02-04T12:18:29;103170.69;;;6.15;66.66
829;BME280;396;52.558;13.188;2023-02-04T12:20:57;103168.84;;;6.02;67.11
829;BME280;396;52.558;13.188;2023-02-04T12:23:24;103166.69;;;5.58;66.71
829;BME280;396;52.558;13.188;2023-02-04T12:25:52;103167.84;;;5.29;69.01
829;BME280;396;52.558;13.188;2023-02-04T12:28:19;103178.94;;;5.13;69.49
829;BME280;396;52.558;13.188;2023-02-04T12:30:46;103173.59;;;5.19;72.06
829;BME280;396;52.558;13.188;2023-02-04T12:33:12;103175.59;;;5.04;70.61
829;BME280;396;52.558;13.188;2023-02-04T12:35:41;103181.63;;;4.71;70.23
829;BME280;396;52.558;13.188;2023-02-04T12:38:08;103184.69;;;4.68;72.83
829;BME280;396;52.558;13.188;2023-02-04T12:40:34;103180.66;;;4.51;73.73
829;BME280;396;52.558;13.188;2023-02-04T12:43:01;103187.66;;;4.45;73.30
829;BME280;396;52.558;13.188;2023-02-04T12:45:28;103184.56;;;4.48;73.92
829;BME280;396;52.558;13.188;2023-02-04T12:47:54;103181.25;;;4.46;74.97
829;BME280;396;52.558;13.188;2023-02-04T12:50:21;103191.47;;;4.64;74.15
829;BME280;396;52.558;13.188;2023-02-04T12:52:50;103189.75;;;4.50;74.99
829;BME280;396;52.558;13.188;2023-02-04T12:55:18;103187.66;;;4.80;75.20
829;BME280;396;52.558;13.188;2023-02-04T12:57:44;103194.50;;;4.83;74.77
829;BME280;396;52.558;13.188;2023-02-04T13:00:12;103199.53;;;4.99;73.17
829;BME280;396;52.558;13.188;2023-02-04T13:02:39;103194.59;;;4.96;71.21
829;BME280;396;52.558;13.188;2023-02-04T13:05:07;103189.28;;;5.09;71.03
829;BME280;396;52.558;13.188;2023-02-04T13:07:33;103198.44;;;5.28;72.60
829;BME280;396;52.558;13.188;2023-02-04T13:10:01;103196.16;;;5.99;68.42
829;BME280;396;52.558;13.188;2023-02-04T13:12:28;103197.16;;;6.58;65.62
829;BME280;396;52.558;13.188;2023-02-04T13:14:54;103197.00;;;5.93;63.90
829;BME280;396;52.558;13.188;2023-02-04T13:17:21;103200.63;;;5.72;63.82
829;BME280;396;52.558;13.188;2023-02-04T13:19:48;103189.81;;;5.52;65.21
829;BME280;396;52.558;13.188;2023-02-04T13:22:14;103191.88;;;5.44;68.78
829;BME280;396;52.558;13.188;2023-02-04T13:24:41;103188.84;;;5.12;68.23
829;BME280;396;52.558;13.188;2023-02-04T13:27:09;103193.72;;;4.95;67.73